Bixby, North Carolina
Current Conditions -  °F | °C
As of 4:54 AM on Thursday 29 Jan 2015 (Local Time) from KINT Reporting Station
Clear Clear  
Wind Chill: 27°   Ceiling: Unl
Heat Index: 27°   Visibility: 10mi
Dew Point: 10°   Wind: 0mph
Humidity: 49%   Direction: NA
Pressure: 30.3"   Gusts: NA
Location:  36.0107°N, 80.4503°W
Report Text: KINT 290954Z AUTO 00000KT 10SM CLR M03/M12 A3030 RMK AO2 SLP266 T10281122
Loading
Personal Weather Stations






























Interactive Weather Map New forecast layout! Learn more

10-Day Weather Forecast

Advertisements
Track Severe Weather on mobile